sensor_id;sensor_type;location;lat;lon;timestamp;pressure;altitude;pressure_sealevel;temperature;humidity
28683;BME280;15862;43.062;25.626;2023-02-04T00:02:23;99938.03;;;2.44;100.00
28683;BME280;15862;43.062;25.626;2023-02-04T00:04:48;99935.56;;;2.43;100.00
28683;BME280;15862;43.062;25.626;2023-02-04T00:07:14;99913.94;;;2.31;100.00
28683;BME280;15862;43.062;25.626;2023-02-04T00:09:43;99921.34;;;2.37;100.00
28683;BME280;15862;43.062;25.626;2023-02-04T00:12:11;99923.63;;;2.43;100.00
28683;BME280;15862;43.062;25.626;2023-02-04T00:14:36;99918.34;;;2.48;100.00
28683;BME280;15862;43.062;25.626;2023-02-04T00:17:01;99920.91;;;2.48;100.00
28683;BME280;15862;43.062;25.626;2023-02-04T00:19:27;99922.59;;;2.47;100.00
28683;BME280;15862;43.062;25.626;2023-02-04T00:21:52;99915.91;;;2.45;100.00
28683;BME280;15862;43.062;25.626;2023-02-04T00:24:18;99895.97;;;2.34;100.00
28683;BME280;15862;43.062;25.626;2023-02-04T00:26:43;99909.47;;;2.36;100.00
28683;BME280;15862;43.062;25.626;2023-02-04T00:29:08;99899.59;;;2.29;100.00
28683;BME280;15862;43.062;25.626;2023-02-04T00:31:34;99894.56;;;2.27;100.00
28683;BME280;15862;43.062;25.626;2023-02-04T00:33:59;99889.59;;;2.25;100.00
28683;BME280;15862;43.062;25.626;2023-02-04T00:36:24;99878.72;;;2.21;100.00
28683;BME280;15862;43.062;25.626;2023-02-04T00:38:50;99877.16;;;2.17;100.00
28683;BME280;15862;43.062;25.626;2023-02-04T00:41:15;99880.72;;;2.13;100.00
28683;BME280;15862;43.062;25.626;2023-02-04T00:43:41;99871.50;;;2.11;100.00
28683;BME280;15862;43.062;25.626;2023-02-04T00:46:06;99859.69;;;2.08;100.00
28683;BME280;15862;43.062;25.626;2023-02-04T00:48:32;99861.69;;;2.02;100.00
28683;BME280;15862;43.062;25.626;2023-02-04T00:50:58;99863.56;;;1.97;100.00
28683;BME280;15862;43.062;25.626;2023-02-04T00:53:23;99847.09;;;1.84;100.00
28683;BME280;15862;43.062;25.626;2023-02-04T00:55:49;99844.31;;;1.90;100.00
28683;BME280;15862;43.062;25.626;2023-02-04T00:58:14;99846.88;;;1.90;100.00
28683;BME280;15862;43.062;25.626;2023-02-04T01:00:39;99845.16;;;1.90;100.00
28683;BME280;15862;43.062;25.626;2023-02-04T01:03:05;99847.88;;;1.86;100.00
28683;BME280;15862;43.062;25.626;2023-02-04T01:05:30;99838.59;;;1.85;100.00
28683;BME280;15862;43.062;25.626;2023-02-04T01:07:56;99841.03;;;1.88;100.00
28683;BME280;15862;43.062;25.626;2023-02-04T01:10:21;99831.72;;;1.87;100.00
28683;BME280;15862;43.062;25.626;2023-02-04T01:12:46;99839.22;;;1.90;100.00
28683;BME280;15862;43.062;25.626;2023-02-04T01:15:13;99835.03;;;1.89;100.00
28683;BME280;15862;43.062;25.626;2023-02-04T01:17:38;99836.50;;;1.94;100.00
28683;BME280;15862;43.062;25.626;2023-02-04T01:20:06;99828.75;;;1.97;100.00
28683;BME280;15862;43.062;25.626;2023-02-04T01:22:31;99819.13;;;2.04;100.00
28683;BME280;15862;43.062;25.626;2023-02-04T01:24:57;99824.22;;;2.04;100.00
28683;BME280;15862;43.062;25.626;2023-02-04T01:27:22;99819.00;;;2.07;100.00
28683;BME280;15862;43.062;25.626;2023-02-04T01:29:48;99802.72;;;2.11;100.00
28683;BME280;15862;43.062;25.626;2023-02-04T01:32:13;99800.03;;;2.14;100.00
28683;BME280;15862;43.062;25.626;2023-02-04T01:34:38;99795.66;;;2.17;100.00
28683;BME280;15862;43.062;25.626;2023-02-04T01:37:04;99796.59;;;2.15;100.00
28683;BME280;15862;43.062;25.626;2023-02-04T01:39:29;99783.75;;;2.18;100.00
28683;BME280;15862;43.062;25.626;2023-02-04T01:41:55;99788.59;;;2.24;100.00
28683;BME280;15862;43.062;25.626;2023-02-04T01:44:22;99769.16;;;2.21;100.00
28683;BME280;15862;43.062;25.626;2023-02-04T01:46:47;99767.25;;;2.26;100.00
28683;BME280;15862;43.062;25.626;2023-02-04T01:49:13;99763.63;;;2.31;100.00
28683;BME280;15862;43.062;25.626;2023-02-04T01:51:38;99754.81;;;2.38;100.00
28683;BME280;15862;43.062;25.626;2023-02-04T01:54:04;99753.78;;;2.42;100.00
28683;BME280;15862;43.062;25.626;2023-02-04T01:56:31;99751.72;;;2.50;100.00
28683;BME280;15862;43.062;25.626;2023-02-04T01:58:57;99743.25;;;2.50;100.00
28683;BME280;15862;43.062;25.626;2023-02-04T02:01:41;99712.13;;;2.43;100.00
28683;BME280;15862;43.062;25.626;2023-02-04T02:04:08;99713.50;;;2.50;100.00
28683;BME280;15862;43.062;25.626;2023-02-04T02:06:35;99713.09;;;2.59;100.00
28683;BME280;15862;43.062;25.626;2023-02-04T02:09:02;99696.41;;;2.52;100.00
28683;BME280;15862;43.062;25.626;2023-02-04T02:11:29;99692.97;;;2.53;100.00
28683;BME280;15862;43.062;25.626;2023-02-04T02:13:54;99701.72;;;2.66;100.00
28683;BME280;15862;43.062;25.626;2023-02-04T02:16:20;99686.06;;;2.55;100.00
28683;BME280;15862;43.062;25.626;2023-02-04T02:18:46;99694.97;;;2.65;100.00
28683;BME280;15862;43.062;25.626;2023-02-04T02:21:13;99692.53;;;2.62;100.00
28683;BME280;15862;43.062;25.626;2023-02-04T02:23:52;99688.97;;;2.66;100.00
28683;BME280;15862;43.062;25.626;2023-02-04T02:26:19;99682.63;;;2.56;100.00
28683;BME280;15862;43.062;25.626;2023-02-04T02:28:46;99680.25;;;2.53;100.00
28683;BME280;15862;43.062;25.626;2023-02-04T02:31:18;99681.94;;;2.53;100.00
28683;BME280;15862;43.062;25.626;2023-02-04T02:33:44;99682.84;;;2.52;100.00
28683;BME280;15862;43.062;25.626;2023-02-04T02:36:10;99654.53;;;2.39;100.00
28683;BME280;15862;43.062;25.626;2023-02-04T02:38:36;99675.34;;;2.49;100.00
28683;BME280;15862;43.062;25.626;2023-02-04T02:41:02;99664.09;;;2.53;100.00
28683;BME280;15862;43.062;25.626;2023-02-04T02:43:28;99646.63;;;2.45;100.00
28683;BME280;15862;43.062;25.626;2023-02-04T02:45:55;99639.72;;;2.47;100.00
28683;BME280;15862;43.062;25.626;2023-02-04T02:48:22;99664.19;;;2.51;100.00
28683;BME280;15862;43.062;25.626;2023-02-04T02:50:48;99662.13;;;2.59;100.00
28683;BME280;15862;43.062;25.626;2023-02-04T02:53:17;99656.41;;;2.54;100.00
28683;BME280;15862;43.062;25.626;2023-02-04T02:55:43;99661.28;;;2.59;100.00
28683;BME280;15862;43.062;25.626;2023-02-04T03:00:45;99634.28;;;2.36;100.00
28683;BME280;15862;43.062;25.626;2023-02-04T03:03:16;99653.38;;;2.46;100.00
28683;BME280;15862;43.062;25.626;2023-02-04T03:05:45;99640.34;;;2.52;100.00
28683;BME280;15862;43.062;25.626;2023-02-04T03:08:13;99636.97;;;2.52;100.00
28683;BME280;15862;43.062;25.626;2023-02-04T03:10:41;99645.28;;;2.55;100.00
28683;BME280;15862;43.062;25.626;2023-02-04T03:13:08;99646.94;;;2.56;100.00
28683;BME280;15862;43.062;25.626;2023-02-04T03:15:34;99630.00;;;2.55;100.00
28683;BME280;15862;43.062;25.626;2023-02-04T03:18:00;99633.19;;;2.60;100.00
28683;BME280;15862;43.062;25.626;2023-02-04T03:20:28;99627.19;;;2.61;100.00
28683;BME280;15862;43.062;25.626;2023-02-04T03:22:54;99611.25;;;2.56;100.00
28683;BME280;15862;43.062;25.626;2023-02-04T03:25:20;99626.91;;;2.67;100.00
28683;BME280;15862;43.062;25.626;2023-02-04T03:27:49;99614.28;;;2.64;100.00
28683;BME280;15862;43.062;25.626;2023-02-04T03:30:15;99620.66;;;2.73;100.00
28683;BME280;15862;43.062;25.626;2023-02-04T03:32:40;99615.06;;;2.66;100.00
28683;BME280;15862;43.062;25.626;2023-02-04T03:35:06;99624.06;;;2.73;100.00
28683;BME280;15862;43.062;25.626;2023-02-04T03:37:31;99613.09;;;2.71;100.00
28683;BME280;15862;43.062;25.626;2023-02-04T03:39:57;99618.97;;;2.73;100.00
28683;BME280;15862;43.062;25.626;2023-02-04T03:42:22;99612.91;;;2.76;100.00
28683;BME280;15862;43.062;25.626;2023-02-04T03:44:48;99607.56;;;2.80;100.00
28683;BME280;15862;43.062;25.626;2023-02-04T03:47:14;99605.84;;;2.81;100.00
28683;BME280;15862;43.062;25.626;2023-02-04T03:49:39;99596.78;;;2.75;100.00
28683;BME280;15862;43.062;25.626;2023-02-04T03:52:05;99608.34;;;2.82;100.00
28683;BME280;15862;43.062;25.626;2023-02-04T03:54:30;99598.97;;;2.83;100.00
28683;BME280;15862;43.062;25.626;2023-02-04T03:56:56;99586.00;;;2.87;100.00
28683;BME280;15862;43.062;25.626;2023-02-04T03:59:21;99589.44;;;2.86;100.00
28683;BME280;15862;43.062;25.626;2023-02-04T04:01:46;99597.13;;;2.68;100.00
28683;BME280;15862;43.062;25.626;2023-02-04T04:04:12;99587.13;;;2.63;100.00
28683;BME280;15862;43.062;25.626;2023-02-04T04:06:37;99587.53;;;2.73;100.00
28683;BME280;15862;43.062;25.626;2023-02-04T04:09:03;99599.47;;;2.72;100.00
28683;BME280;15862;43.062;25.626;2023-02-04T04:11:29;99601.25;;;2.70;100.00
28683;BME280;15862;43.062;25.626;2023-02-04T04:13:54;99600.34;;;2.71;100.00
28683;BME280;15862;43.062;25.626;2023-02-04T04:16:20;99592.03;;;2.68;100.00
28683;BME280;15862;43.062;25.626;2023-02-04T04:18:45;99597.81;;;2.71;100.00
28683;BME280;15862;43.062;25.626;2023-02-04T04:21:11;99585.59;;;2.78;100.00
28683;BME280;15862;43.062;25.626;2023-02-04T04:23:36;99570.59;;;2.72;100.00
28683;BME280;15862;43.062;25.626;2023-02-04T04:26:02;99576.31;;;2.77;100.00
28683;BME280;15862;43.062;25.626;2023-02-04T04:28:27;99561.22;;;2.72;100.00
28683;BME280;15862;43.062;25.626;2023-02-04T04:30:53;99563.16;;;2.67;100.00
28683;BME280;15862;43.062;25.626;2023-02-04T04:33:18;99561.22;;;2.72;100.00
28683;BME280;15862;43.062;25.626;2023-02-04T04:35:44;99573.84;;;2.75;100.00
28683;BME280;15862;43.062;25.626;2023-02-04T04:38:09;99541.13;;;2.66;100.00
28683;BME280;15862;43.062;25.626;2023-02-04T04:40:34;99561.13;;;2.74;100.00
28683;BME280;15862;43.062;25.626;2023-02-04T04:43:00;99561.22;;;2.72;100.00
28683;BME280;15862;43.062;25.626;2023-02-04T04:45:25;99562.13;;;2.71;100.00
28683;BME280;15862;43.062;25.626;2023-02-04T04:47:51;99563.00;;;2.70;100.00
28683;BME280;15862;43.062;25.626;2023-02-04T04:50:16;99558.75;;;2.71;100.00
28683;BME280;15862;43.062;25.626;2023-02-04T04:52:42;99545.75;;;2.58;100.00
28683;BME280;15862;43.062;25.626;2023-02-04T04:55:07;99559.44;;;2.74;100.00
28683;BME280;15862;43.062;25.626;2023-02-04T04:57:33;99530.88;;;2.49;100.00
28683;BME280;15862;43.062;25.626;2023-02-04T04:59:58;99560.25;;;2.75;100.00
28683;BME280;15862;43.062;25.626;2023-02-04T05:02:24;99556.59;;;2.80;100.00
28683;BME280;15862;43.062;25.626;2023-02-04T05:04:49;99563.34;;;2.81;100.00
28683;BME280;15862;43.062;25.626;2023-02-04T05:07:15;99552.38;;;2.79;100.00
28683;BME280;15862;43.062;25.626;2023-02-04T05:09:40;99551.19;;;2.86;100.00
28683;BME280;15862;43.062;25.626;2023-02-04T05:12:05;99536.94;;;2.82;100.00
28683;BME280;15862;43.062;25.626;2023-02-04T05:14:31;99541.50;;;2.76;100.00
28683;BME280;15862;43.062;25.626;2023-02-04T05:16:56;99544.72;;;2.79;100.00
28683;BME280;15862;43.062;25.626;2023-02-04T05:19:22;99542.00;;;2.65;100.00
28683;BME280;15862;43.062;25.626;2023-02-04T05:21:47;99544.44;;;2.68;100.00
28683;BME280;15862;43.062;25.626;2023-02-04T05:24:13;99542.25;;;2.78;100.00
28683;BME280;15862;43.062;25.626;2023-02-04T05:26:38;99535.84;;;2.69;100.00
28683;BME280;15862;43.062;25.626;2023-02-04T05:29:04;99532.59;;;2.67;100.00
28683;BME280;15862;43.062;25.626;2023-02-04T05:31:30;99516.97;;;2.56;100.00
28683;BME280;15862;43.062;25.626;2023-02-04T05:33:55;99528.00;;;2.57;100.00
28683;BME280;15862;43.062;25.626;2023-02-04T05:36:20;99532.69;;;2.47;100.00
28683;BME280;15862;43.062;25.626;2023-02-04T05:38:46;99532.28;;;2.38;100.00
28683;BME280;15862;43.062;25.626;2023-02-04T05:41:11;99541.97;;;2.31;100.00
28683;BME280;15862;43.062;25.626;2023-02-04T05:43:38;99536.22;;;2.26;100.00
28683;BME280;15862;43.062;25.626;2023-02-04T05:46:04;99540.44;;;2.27;100.00
28683;BME280;15862;43.062;25.626;2023-02-04T05:48:29;99540.34;;;2.29;100.00
28683;BME280;15862;43.062;25.626;2023-02-04T05:50:55;99541.13;;;2.31;100.00
28683;BME280;15862;43.062;25.626;2023-02-04T05:53:20;99554.25;;;2.40;100.00
28683;BME280;15862;43.062;25.626;2023-02-04T05:55:46;99552.16;;;2.48;100.00
28683;BME280;15862;43.062;25.626;2023-02-04T05:58:11;99550.81;;;2.41;100.00
28683;BME280;15862;43.062;25.626;2023-02-04T06:00:37;99577.16;;;2.59;100.00
28683;BME280;15862;43.062;25.626;2023-02-04T06:03:02;99565.25;;;2.59;100.00
28683;BME280;15862;43.062;25.626;2023-02-04T06:05:28;99573.66;;;2.78;100.00
28683;BME280;15862;43.062;25.626;2023-02-04T06:07:53;99591.56;;;2.95;100.00
28683;BME280;15862;43.062;25.626;2023-02-04T06:10:18;99591.16;;;3.02;100.00
28683;BME280;15862;43.062;25.626;2023-02-04T06:12:46;99597.03;;;3.04;100.00
28683;BME280;15862;43.062;25.626;2023-02-04T06:15:11;99588.41;;;3.07;100.00
28683;BME280;15862;43.062;25.626;2023-02-04T06:17:37;99601.47;;;3.18;100.00
28683;BME280;15862;43.062;25.626;2023-02-04T06:20:04;99589.69;;;3.32;100.00
28683;BME280;15862;43.062;25.626;2023-02-04T06:22:30;99598.47;;;3.44;100.00
28683;BME280;15862;43.062;25.626;2023-02-04T06:24:55;99587.22;;;3.48;100.00
28683;BME280;15862;43.062;25.626;2023-02-04T06:27:21;99600.47;;;3.71;100.00
28683;BME280;15862;43.062;25.626;2023-02-04T06:29:53;99603.94;;;3.85;100.00
28683;BME280;15862;43.062;25.626;2023-02-04T06:32:20;99583.38;;;3.88;100.00
28683;BME280;15862;43.062;25.626;2023-02-04T06:34:45;99603.09;;;4.17;100.00
28683;BME280;15862;43.062;25.626;2023-02-04T06:37:11;99593.31;;;4.25;100.00
28683;BME280;15862;43.062;25.626;2023-02-04T06:39:37;99597.75;;;4.37;100.00
28683;BME280;15862;43.062;25.626;2023-02-04T06:42:03;99598.69;;;4.52;100.00
28683;BME280;15862;43.062;25.626;2023-02-04T06:44:29;99585.22;;;4.63;100.00
28683;BME280;15862;43.062;25.626;2023-02-04T06:46:54;99571.44;;;4.66;100.00
28683;BME280;15862;43.062;25.626;2023-02-04T06:49:20;99589.59;;;4.77;100.00
28683;BME280;15862;43.062;25.626;2023-02-04T06:51:45;99567.31;;;4.79;100.00
28683;BME280;15862;43.062;25.626;2023-02-04T06:54:12;99567.88;;;4.84;100.00
28683;BME280;15862;43.062;25.626;2023-02-04T06:56:38;99565.06;;;4.88;100.00
28683;BME280;15862;43.062;25.626;2023-02-04T06:59:03;99558.19;;;4.89;100.00
28683;BME280;15862;43.062;25.626;2023-02-04T07:01:28;99547.09;;;4.74;100.00
28683;BME280;15862;43.062;25.626;2023-02-04T07:03:54;99551.78;;;4.82;100.00
28683;BME280;15862;43.062;25.626;2023-02-04T07:06:19;99532.00;;;4.70;100.00
28683;BME280;15862;43.062;25.626;2023-02-04T07:08:45;99554.91;;;4.87;100.00
28683;BME280;15862;43.062;25.626;2023-02-04T07:11:11;99554.06;;;4.86;100.00
28683;BME280;15862;43.062;25.626;2023-02-04T07:13:37;99560.75;;;4.89;100.00
28683;BME280;15862;43.062;25.626;2023-02-04T07:16:02;99539.22;;;4.93;100.00
28683;BME280;15862;43.062;25.626;2023-02-04T07:18:27;99548.25;;;4.98;100.00
28683;BME280;15862;43.062;25.626;2023-02-04T07:20:53;99557.84;;;4.95;100.00
28683;BME280;15862;43.062;25.626;2023-02-04T07:23:18;99558.94;;;4.91;100.00
28683;BME280;15862;43.062;25.626;2023-02-04T07:25:44;99556.38;;;4.91;100.00
28683;BME280;15862;43.062;25.626;2023-02-04T07:28:09;99562.25;;;4.93;100.00
28683;BME280;15862;43.062;25.626;2023-02-04T07:30:35;99553.56;;;4.95;100.00
28683;BME280;15862;43.062;25.626;2023-02-04T07:33:00;99556.38;;;4.91;100.00
28683;BME280;15862;43.062;25.626;2023-02-04T07:35:25;99564.16;;;4.89;100.00
28683;BME280;15862;43.062;25.626;2023-02-04T07:37:51;99565.06;;;4.88;100.00
28683;BME280;15862;43.062;25.626;2023-02-04T07:40:16;99556.94;;;4.96;100.00
28683;BME280;15862;43.062;25.626;2023-02-04T07:42:42;99546.63;;;4.97;100.00
28683;BME280;15862;43.062;25.626;2023-02-04T07:45:07;99550.09;;;4.96;100.00
28683;BME280;15862;43.062;25.626;2023-02-04T07:47:33;99543.97;;;4.99;100.00
28683;BME280;15862;43.062;25.626;2023-02-04T07:49:58;99549.09;;;4.99;100.00
28683;BME280;15862;43.062;25.626;2023-02-04T07:52:24;99546.63;;;4.97;100.00
28683;BME280;15862;43.062;25.626;2023-02-04T07:54:49;99543.53;;;5.06;100.00
28683;BME280;15862;43.062;25.626;2023-02-04T07:57:16;99529.28;;;5.02;100.00
28683;BME280;15862;43.062;25.626;2023-02-04T07:59:42;99520.50;;;5.06;100.00
28683;BME280;15862;43.062;25.626;2023-02-04T08:02:08;99509.06;;;4.98;100.00
28683;BME280;15862;43.062;25.626;2023-02-04T08:04:34;99517.31;;;5.17;100.00
28683;BME280;15862;43.062;25.626;2023-02-04T08:07:00;99509.84;;;5.28;100.00
28683;BME280;15862;43.062;25.626;2023-02-04T08:09:25;99519.34;;;5.39;100.00
28683;BME280;15862;43.062;25.626;2023-02-04T08:11:51;99512.06;;;5.47;100.00
28683;BME280;15862;43.062;25.626;2023-02-04T08:14:17;99514.72;;;5.60;100.00
28683;BME280;15862;43.062;25.626;2023-02-04T08:16:42;99501.34;;;5.69;100.00
28683;BME280;15862;43.062;25.626;2023-02-04T08:19:08;99499.91;;;5.79;100.00
28683;BME280;15862;43.062;25.626;2023-02-04T08:21:33;99500.19;;;5.88;100.00
28683;BME280;15862;43.062;25.626;2023-02-04T08:23:58;99502.38;;;5.94;100.00
28683;BME280;15862;43.062;25.626;2023-02-04T08:26:24;99498.88;;;6.09;100.00
28683;BME280;15862;43.062;25.626;2023-02-04T08:28:49;99497.56;;;6.16;100.00
28683;BME280;15862;43.062;25.626;2023-02-04T08:31:15;99500.47;;;6.24;100.00
28683;BME280;15862;43.062;25.626;2023-02-04T08:33:40;99492.78;;;6.24;100.00
28683;BME280;15862;43.062;25.626;2023-02-04T08:36:06;99496.41;;;6.34;100.00
28683;BME280;15862;43.062;25.626;2023-02-04T08:38:32;99493.66;;;6.37;100.00
28683;BME280;15862;43.062;25.626;2023-02-04T08:40:57;99475.19;;;6.44;100.00
28683;BME280;15862;43.062;25.626;2023-02-04T08:43:24;99487.63;;;6.89;100.00
28683;BME280;15862;43.062;25.626;2023-02-04T08:45:49;99489.72;;;6.96;100.00
28683;BME280;15862;43.062;25.626;2023-02-04T08:48:15;99483.25;;;6.91;100.00
28683;BME280;15862;43.062;25.626;2023-02-04T08:50:40;99484.03;;;6.91;100.00
28683;BME280;15862;43.062;25.626;2023-02-04T08:53:06;99482.41;;;6.78;100.00
28683;BME280;15862;43.062;25.626;2023-02-04T08:55:31;99484.53;;;6.72;100.00
28683;BME280;15862;43.062;25.626;2023-02-04T08:57:56;99483.03;;;6.82;100.00
28683;BME280;15862;43.062;25.626;2023-02-04T09:00:23;99469.25;;;6.70;100.00
28683;BME280;15862;43.062;25.626;2023-02-04T09:02:49;99491.00;;;6.77;100.00
28683;BME280;15862;43.062;25.626;2023-02-04T09:05:14;99490.97;;;6.65;100.00
28683;BME280;15862;43.062;25.626;2023-02-04T09:07:40;99483.34;;;6.51;100.00
28683;BME280;15862;43.062;25.626;2023-02-04T09:10:05;99484.66;;;6.44;100.00
28683;BME280;15862;43.062;25.626;2023-02-04T09:12:31;99489.00;;;6.29;100.00
28683;BME280;15862;43.062;25.626;2023-02-04T09:14:56;99486.94;;;6.22;100.00
28683;BME280;15862;43.062;25.626;2023-02-04T09:17:22;99504.06;;;6.07;100.00
28683;BME280;15862;43.062;25.626;2023-02-04T09:19:47;99493.78;;;5.95;100.00
28683;BME280;15862;43.062;25.626;2023-02-04T09:22:13;99495.78;;;5.90;100.00
28683;BME280;15862;43.062;25.626;2023-02-04T09:24:39;99500.91;;;5.90;100.00
28683;BME280;15862;43.062;25.626;2023-02-04T09:27:05;99495.69;;;5.78;100.00
28683;BME280;15862;43.062;25.626;2023-02-04T09:29:30;99501.25;;;5.56;100.00
28683;BME280;15862;43.062;25.626;2023-02-04T09:31:55;99505.47;;;5.43;100.00
28683;BME280;15862;43.062;25.626;2023-02-04T09:34:22;99502.53;;;5.22;100.00
28683;BME280;15862;43.062;25.626;2023-02-04T09:36:47;99500.00;;;5.06;100.00
28683;BME280;15862;43.062;25.626;2023-02-04T09:39:12;99502.38;;;4.95;100.00
28683;BME280;15862;43.062;25.626;2023-02-04T09:41:39;99508.88;;;4.87;100.00
28683;BME280;15862;43.062;25.626;2023-02-04T09:44:09;99510.31;;;4.91;100.00
28683;BME280;15862;43.062;25.626;2023-02-04T09:46:37;99516.56;;;5.01;100.00
28683;BME280;15862;43.062;25.626;2023-02-04T09:49:02;99526.25;;;5.10;100.00
28683;BME280;15862;43.062;25.626;2023-02-04T09:51:30;99511.91;;;5.07;100.00
28683;BME280;15862;43.062;25.626;2023-02-04T09:54:16;99508.78;;;5.02;100.00
28683;BME280;15862;43.062;25.626;2023-02-04T09:56:41;99499.72;;;4.97;100.00
28683;BME280;15862;43.062;25.626;2023-02-04T09:59:18;99496.09;;;5.01;100.00
28683;BME280;15862;43.062;25.626;2023-02-04T10:01:47;99489.50;;;4.97;100.00
28683;BME280;15862;43.062;25.626;2023-02-04T10:04:21;99506.34;;;5.01;100.00
28683;BME280;15862;43.062;25.626;2023-02-04T10:06:47;99501.75;;;5.06;100.00
28683;BME280;15862;43.062;25.626;2023-02-04T10:09:13;99499.75;;;5.11;100.00
28683;BME280;15862;43.062;25.626;2023-02-04T10:11:42;99464.53;;;5.00;100.00
28683;BME280;15862;43.062;25.626;2023-02-04T10:14:18;99487.44;;;5.17;100.00
28683;BME280;15862;43.062;25.626;2023-02-04T10:16:52;99490.81;;;5.31;100.00
28683;BME280;15862;43.062;25.626;2023-02-04T10:19:19;99479.28;;;5.25;100.00
28683;BME280;15862;43.062;25.626;2023-02-04T10:21:44;99476.03;;;5.23;100.00
28683;BME280;15862;43.062;25.626;2023-02-04T10:24:15;99483.50;;;5.26;100.00
28683;BME280;15862;43.062;25.626;2023-02-04T10:26:42;99479.28;;;5.25;100.00
28683;BME280;15862;43.062;25.626;2023-02-04T10:29:13;99480.41;;;5.34;100.00
28683;BME280;15862;43.062;25.626;2023-02-04T10:31:41;99487.81;;;5.53;100.00
28683;BME280;15862;43.062;25.626;2023-02-04T10:34:33;99479.97;;;5.56;100.00
28683;BME280;15862;43.062;25.626;2023-02-04T10:37:13;99478.94;;;5.72;100.00
28683;BME280;15862;43.062;25.626;2023-02-04T10:39:42;99478.47;;;5.66;100.00
28683;BME280;15862;43.062;25.626;2023-02-04T10:44:48;99471.25;;;5.72;100.00
28683;BME280;15862;43.062;25.626;2023-02-04T10:47:25;99467.78;;;5.73;100.00
28683;BME280;15862;43.062;25.626;2023-02-04T10:50:10;99457.81;;;5.69;100.00
28683;BME280;15862;43.062;25.626;2023-02-04T10:52:41;99463.03;;;5.81;100.00
28683;BME280;15862;43.062;25.626;2023-02-04T10:55:15;99468.22;;;5.94;100.00
28683;BME280;15862;43.062;25.626;2023-02-04T10:57:43;99446.69;;;5.96;100.00
28683;BME280;15862;43.062;25.626;2023-02-04T11:00:15;99457.50;;;6.01;100.00
28683;BME280;15862;43.062;25.626;2023-02-04T11:02:57;99460.53;;;6.20;100.00
28683;BME280;15862;43.062;25.626;2023-02-04T11:05:28;99463.75;;;6.23;100.00
28683;BME280;15862;43.062;25.626;2023-02-04T11:07:54;99448.69;;;6.05;100.00
28683;BME280;15862;43.062;25.626;2023-02-04T11:10:22;99438.59;;;5.90;100.00
28683;BME280;15862;43.062;25.626;2023-02-04T11:15:45;99451.41;;;6.16;100.00
28683;BME280;15862;43.062;25.626;2023-02-04T11:20:51;99443.78;;;6.41;100.00
28683;BME280;15862;43.062;25.626;2023-02-04T11:23:30;99439.72;;;6.51;100.00
28683;BME280;15862;43.062;25.626;2023-02-04T11:26:30;99425.06;;;6.65;100.00
28683;BME280;15862;43.062;25.626;2023-02-04T11:36:31;99403.06;;;7.00;100.00
28683;BME280;15862;43.062;25.626;2023-02-04T11:39:06;99419.94;;;7.40;100.00
28683;BME280;15862;43.062;25.626;2023-02-04T11:41:37;99417.69;;;7.48;100.00
28683;BME280;15862;43.062;25.626;2023-02-04T11:44:02;99401.94;;;7.52;100.00
28683;BME280;15862;43.062;25.626;2023-02-04T11:46:28;99403.38;;;7.56;100.00
28683;BME280;15862;43.062;25.626;2023-02-04T11:48:55;99406.09;;;7.78;100.00
28683;BME280;15862;43.062;25.626;2023-02-04T11:51:29;99395.59;;;7.81;100.00
28683;BME280;15862;43.062;25.626;2023-02-04T11:53:55;99394.69;;;7.82;100.00
28683;BME280;15862;43.062;25.626;2023-02-04T11:56:22;99388.97;;;7.66;100.00
28683;BME280;15862;43.062;25.626;2023-02-04T11:58:48;99387.94;;;7.56;100.00
28683;BME280;15862;43.062;25.626;2023-02-04T12:01:22;99381.88;;;7.57;100.00
28683;BME280;15862;43.062;25.626;2023-02-04T12:03:55;99383.03;;;7.53;100.00
28683;BME280;15862;43.062;25.626;2023-02-04T12:06:26;99375.69;;;7.24;100.00
28683;BME280;15862;43.062;25.626;2023-02-04T12:08:52;99370.66;;;7.22;100.00
28683;BME280;15862;43.062;25.626;2023-02-04T12:11:28;99363.81;;;7.10;100.00
28683;BME280;15862;43.062;25.626;2023-02-04T12:14:04;99369.63;;;7.25;100.00
28683;BME280;15862;43.062;25.626;2023-02-04T12:16:39;99364.28;;;7.40;100.00
28683;BME280;15862;43.062;25.626;2023-02-04T12:19:05;99357.47;;;7.52;100.00
28683;BME280;15862;43.062;25.626;2023-02-04T12:21:30;99338.16;;;7.46;100.00
28683;BME280;15862;43.062;25.626;2023-02-04T12:23:55;99346.16;;;7.54;100.00
28683;BME280;15862;43.062;25.626;2023-02-04T12:26:21;99345.91;;;7.57;100.00
28683;BME280;15862;43.062;25.626;2023-02-04T12:28:46;99337.88;;;7.85;100.00
28683;BME280;15862;43.062;25.626;2023-02-04T12:31:12;99344.75;;;9.31;100.00
28683;BME280;15862;43.062;25.626;2023-02-04T12:33:37;99343.81;;;9.96;100.00
28683;BME280;15862;43.062;25.626;2023-02-04T12:36:03;99350.25;;;10.12;100.00
28683;BME280;15862;43.062;25.626;2023-02-04T12:38:28;99324.28;;;9.83;100.00
28683;BME280;15862;43.062;25.626;2023-02-04T12:40:54;99355.84;;;9.64;100.00
28683;BME280;15862;43.062;25.626;2023-02-04T12:43:19;99347.47;;;9.29;100.00
28683;BME280;15862;43.062;25.626;2023-02-04T12:45:45;99356.25;;;8.94;100.00
28683;BME280;15862;43.062;25.626;2023-02-04T12:48:13;99349.75;;;7.98;100.00
28683;BME280;15862;43.062;25.626;2023-02-04T12:50:39;99371.25;;;7.74;100.00
28683;BME280;15862;43.062;25.626;2023-02-04T12:53:04;99357.31;;;7.17;100.00
28683;BME280;15862;43.062;25.626;2023-02-04T12:55:30;99361.66;;;6.80;100.00
28683;BME280;15862;43.062;25.626;2023-02-04T12:57:56;99372.44;;;6.84;100.00
28683;BME280;15862;43.062;25.626;2023-02-04T13:00:22;99364.22;;;6.80;100.00
28683;BME280;15862;43.062;25.626;2023-02-04T13:02:48;99382.50;;;6.87;100.00
28683;BME280;15862;43.062;25.626;2023-02-04T13:05:15;99382.19;;;6.92;100.00
28683;BME280;15862;43.062;25.626;2023-02-04T13:07:40;99387.94;;;6.95;100.00